Olustee, Florida
Current Conditions -  °F | °C
As of 1:15 AM on Thursday 23 Oct 2014 (Local Time) from KLCQ Reporting Station
Clear Clear  
Wind Chill: 48°   Ceiling: Unl
Heat Index: 48°   Visibility: 10mi
Dew Point: 48°   Wind: 3mph
Humidity: 100%   Direction: 50°NE
Pressure: 30.05"   Gusts: NA
Location:  30.2°N, 82.43°W
Report Text: KLCQ 230515Z AUTO 05003KT 10SM CLR 09/09 A3005 RMK AO2
Loading
Personal Weather Stations






























Interactive Weather Map
Tropical Storm Tracking
New forecast layout! Learn more

10-Day Weather Forecast

Advertisements
Track Severe Weather on mobile